Terminal Aerodrome Forecast
Issued by NWS

Home | Current Version | Previous Version | Text Only | Print | Product List | Glossary On
Versions: 1 2 3 4 5 6 7 8 9 10 11 12 13 14 15
023
FTUS46 KPDT 240806 AAA
TAFRDM
TAF AMD
KRDM 240806Z 2408/2506 VRB06KT P6SM VCSH BKN050 BKN100
     FM250100 32008KT P6SM VCSH BKN040 BKN100=

USA.gov is the U.S. government's official web portal to all federal, state and local government web resources and services.